sensor_id;sensor_type;location;lat;lon;timestamp;P1;durP1;ratioP1;P2;durP2;ratioP2
11064;SDS011;5585;52.530;7.320;2023-06-24T00:01:53;4.40;;;3.50;;
11064;SDS011;5585;52.530;7.320;2023-06-24T00:04:20;4.50;;;4.10;;
11064;SDS011;5585;52.530;7.320;2023-06-24T00:06:46;4.80;;;4.03;;
11064;SDS011;5585;52.530;7.320;2023-06-24T00:09:13;4.05;;;3.35;;
11064;SDS011;5585;52.530;7.320;2023-06-24T00:11:39;4.88;;;4.40;;
11064;SDS011;5585;52.530;7.320;2023-06-24T00:14:06;4.50;;;4.10;;
11064;SDS011;5585;52.530;7.320;2023-06-24T00:16:33;4.28;;;3.60;;
11064;SDS011;5585;52.530;7.320;2023-06-24T00:19:02;4.93;;;4.20;;
11064;SDS011;5585;52.530;7.320;2023-06-24T00:21:28;4.25;;;3.85;;
11064;SDS011;5585;52.530;7.320;2023-06-24T00:23:56;5.85;;;4.10;;
11064;SDS011;5585;52.530;7.320;2023-06-24T00:26:23;4.68;;;3.95;;
11064;SDS011;5585;52.530;7.320;2023-06-24T00:28:50;6.40;;;4.43;;
11064;SDS011;5585;52.530;7.320;2023-06-24T00:31:16;5.22;;;4.20;;
11064;SDS011;5585;52.530;7.320;2023-06-24T00:33:43;4.47;;;4.03;;
11064;SDS011;5585;52.530;7.320;2023-06-24T00:36:11;5.25;;;3.97;;
11064;SDS011;5585;52.530;7.320;2023-06-24T00:38:37;5.32;;;4.43;;
11064;SDS011;5585;52.530;7.320;2023-06-24T00:41:04;6.22;;;4.45;;
11064;SDS011;5585;52.530;7.320;2023-06-24T00:43:31;5.28;;;4.30;;
11064;SDS011;5585;52.530;7.320;2023-06-24T00:45:57;4.57;;;4.10;;
11064;SDS011;5585;52.530;7.320;2023-06-24T00:48:24;5.03;;;4.13;;
11064;SDS011;5585;52.530;7.320;2023-06-24T00:50:50;4.78;;;3.85;;
11064;SDS011;5585;52.530;7.320;2023-06-24T00:53:18;4.80;;;4.40;;
11064;SDS011;5585;52.530;7.320;2023-06-24T00:55:45;4.70;;;4.25;;
11064;SDS011;5585;52.530;7.320;2023-06-24T00:58:12;5.95;;;4.70;;
11064;SDS011;5585;52.530;7.320;2023-06-24T01:00:41;5.15;;;4.40;;
11064;SDS011;5585;52.530;7.320;2023-06-24T01:03:08;4.82;;;4.20;;
11064;SDS011;5585;52.530;7.320;2023-06-24T01:05:35;6.70;;;4.35;;
11064;SDS011;5585;52.530;7.320;2023-06-24T01:08:02;4.75;;;4.20;;
11064;SDS011;5585;52.530;7.320;2023-06-24T01:10:30;5.22;;;4.18;;
11064;SDS011;5585;52.530;7.320;2023-06-24T01:12:56;4.32;;;3.92;;
11064;SDS011;5585;52.530;7.320;2023-06-24T01:15:23;4.35;;;3.95;;
11064;SDS011;5585;52.530;7.320;2023-06-24T01:17:55;4.80;;;4.40;;
11064;SDS011;5585;52.530;7.320;2023-06-24T01:20:23;4.93;;;4.43;;
11064;SDS011;5585;52.530;7.320;2023-06-24T01:23:08;5.25;;;4.75;;
11064;SDS011;5585;52.530;7.320;2023-06-24T01:25:51;5.47;;;4.97;;
11064;SDS011;5585;52.530;7.320;2023-06-24T01:28:24;5.32;;;4.55;;
11064;SDS011;5585;52.530;7.320;2023-06-24T01:33:45;5.38;;;4.88;;
11064;SDS011;5585;52.530;7.320;2023-06-24T01:36:14;5.03;;;4.53;;
11064;SDS011;5585;52.530;7.320;2023-06-24T01:38:42;5.50;;;4.50;;
11064;SDS011;5585;52.530;7.320;2023-06-24T01:41:09;5.25;;;4.70;;
11064;SDS011;5585;52.530;7.320;2023-06-24T01:43:38;6.70;;;5.28;;
11064;SDS011;5585;52.530;7.320;2023-06-24T01:46:09;5.35;;;4.88;;
11064;SDS011;5585;52.530;7.320;2023-06-24T01:48:36;5.07;;;4.57;;
11064;SDS011;5585;52.530;7.320;2023-06-24T01:51:06;5.40;;;4.90;;
11064;SDS011;5585;52.530;7.320;2023-06-24T01:53:34;5.85;;;4.68;;
11064;SDS011;5585;52.530;7.320;2023-06-24T01:56:01;7.28;;;5.75;;
11064;SDS011;5585;52.530;7.320;2023-06-24T01:58:28;8.07;;;5.55;;
11064;SDS011;5585;52.530;7.320;2023-06-24T02:00:56;5.43;;;4.93;;
11064;SDS011;5585;52.530;7.320;2023-06-24T02:03:23;5.28;;;4.78;;
11064;SDS011;5585;52.530;7.320;2023-06-24T02:05:50;4.85;;;4.40;;
11064;SDS011;5585;52.530;7.320;2023-06-24T02:08:19;5.82;;;5.22;;
11064;SDS011;5585;52.530;7.320;2023-06-24T02:10:47;5.05;;;4.60;;
11064;SDS011;5585;52.530;7.320;2023-06-24T02:13:14;6.30;;;4.90;;
11064;SDS011;5585;52.530;7.320;2023-06-24T02:15:41;5.22;;;4.72;;
11064;SDS011;5585;52.530;7.320;2023-06-24T02:18:09;5.35;;;4.85;;
11064;SDS011;5585;52.530;7.320;2023-06-24T02:20:36;4.82;;;4.43;;
11064;SDS011;5585;52.530;7.320;2023-06-24T02:23:04;5.40;;;4.90;;
11064;SDS011;5585;52.530;7.320;2023-06-24T02:25:34;5.45;;;4.70;;
11064;SDS011;5585;52.530;7.320;2023-06-24T02:28:04;5.57;;;5.07;;
11064;SDS011;5585;52.530;7.320;2023-06-24T02:30:31;5.47;;;4.97;;
11064;SDS011;5585;52.530;7.320;2023-06-24T02:32:57;5.97;;;5.30;;
11064;SDS011;5585;52.530;7.320;2023-06-24T02:35:24;5.32;;;4.82;;
11064;SDS011;5585;52.530;7.320;2023-06-24T02:37:50;5.55;;;5.05;;
11064;SDS011;5585;52.530;7.320;2023-06-24T02:40:17;5.85;;;4.95;;
11064;SDS011;5585;52.530;7.320;2023-06-24T02:42:46;5.43;;;4.82;;
11064;SDS011;5585;52.530;7.320;2023-06-24T02:45:12;5.85;;;5.20;;
11064;SDS011;5585;52.530;7.320;2023-06-24T02:47:40;5.72;;;5.13;;
11064;SDS011;5585;52.530;7.320;2023-06-24T02:50:07;6.47;;;5.82;;
11064;SDS011;5585;52.530;7.320;2023-06-24T02:52:34;5.55;;;5.00;;
11064;SDS011;5585;52.530;7.320;2023-06-24T02:55:02;5.63;;;5.13;;
11064;SDS011;5585;52.530;7.320;2023-06-24T02:57:29;5.45;;;4.95;;
11064;SDS011;5585;52.530;7.320;2023-06-24T02:59:58;6.53;;;5.47;;
11064;SDS011;5585;52.530;7.320;2023-06-24T03:02:25;6.38;;;5.60;;
11064;SDS011;5585;52.530;7.320;2023-06-24T03:04:51;5.82;;;5.32;;
11064;SDS011;5585;52.530;7.320;2023-06-24T03:07:18;5.70;;;5.20;;
11064;SDS011;5585;52.530;7.320;2023-06-24T03:09:46;6.03;;;5.47;;
11064;SDS011;5585;52.530;7.320;2023-06-24T03:12:12;6.22;;;5.63;;
11064;SDS011;5585;52.530;7.320;2023-06-24T03:14:39;6.30;;;5.70;;
11064;SDS011;5585;52.530;7.320;2023-06-24T03:17:07;7.50;;;6.35;;
11064;SDS011;5585;52.530;7.320;2023-06-24T03:19:33;6.00;;;5.45;;
11064;SDS011;5585;52.530;7.320;2023-06-24T03:22:00;6.25;;;5.50;;
11064;SDS011;5585;52.530;7.320;2023-06-24T03:24:27;5.78;;;5.28;;
11064;SDS011;5585;52.530;7.320;2023-06-24T03:26:54;5.90;;;5.32;;
11064;SDS011;5585;52.530;7.320;2023-06-24T03:29:22;6.05;;;5.45;;
11064;SDS011;5585;52.530;7.320;2023-06-24T03:31:48;8.32;;;6.22;;
11064;SDS011;5585;52.530;7.320;2023-06-24T03:34:16;6.57;;;5.93;;
11064;SDS011;5585;52.530;7.320;2023-06-24T03:36:43;7.00;;;6.10;;
11064;SDS011;5585;52.530;7.320;2023-06-24T03:39:09;6.68;;;6.03;;
11064;SDS011;5585;52.530;7.320;2023-06-24T03:41:36;6.38;;;5.82;;
11064;SDS011;5585;52.530;7.320;2023-06-24T03:44:04;6.50;;;5.82;;
11064;SDS011;5585;52.530;7.320;2023-06-24T03:46:31;6.35;;;5.35;;
11064;SDS011;5585;52.530;7.320;2023-06-24T03:48:58;8.55;;;5.57;;
11064;SDS011;5585;52.530;7.320;2023-06-24T03:51:26;6.53;;;5.75;;
11064;SDS011;5585;52.530;7.320;2023-06-24T03:53:52;5.65;;;5.00;;
11064;SDS011;5585;52.530;7.320;2023-06-24T03:56:19;6.20;;;5.60;;
11064;SDS011;5585;52.530;7.320;2023-06-24T03:58:45;5.63;;;5.13;;
11064;SDS011;5585;52.530;7.320;2023-06-24T04:01:12;5.38;;;4.88;;
11064;SDS011;5585;52.530;7.320;2023-06-24T04:03:38;5.50;;;5.00;;
11064;SDS011;5585;52.530;7.320;2023-06-24T04:06:05;5.22;;;4.82;;
11064;SDS011;5585;52.530;7.320;2023-06-24T04:08:33;6.47;;;5.20;;
11064;SDS011;5585;52.530;7.320;2023-06-24T04:10:59;5.60;;;5.10;;
11064;SDS011;5585;52.530;7.320;2023-06-24T04:13:28;5.80;;;5.30;;
11064;SDS011;5585;52.530;7.320;2023-06-24T04:15:54;6.35;;;5.72;;
11064;SDS011;5585;52.530;7.320;2023-06-24T04:18:21;6.05;;;5.47;;
11064;SDS011;5585;52.530;7.320;2023-06-24T04:20:47;6.00;;;5.50;;
11064;SDS011;5585;52.530;7.320;2023-06-24T04:23:14;6.25;;;5.65;;
11064;SDS011;5585;52.530;7.320;2023-06-24T04:25:42;6.35;;;5.75;;
11064;SDS011;5585;52.530;7.320;2023-06-24T04:28:08;6.38;;;5.65;;
11064;SDS011;5585;52.530;7.320;2023-06-24T04:30:35;6.82;;;6.10;;
11064;SDS011;5585;52.530;7.320;2023-06-24T04:33:03;5.82;;;5.18;;
11064;SDS011;5585;52.530;7.320;2023-06-24T04:35:30;6.13;;;5.47;;
11064;SDS011;5585;52.530;7.320;2023-06-24T04:37:56;5.32;;;4.82;;
11064;SDS011;5585;52.530;7.320;2023-06-24T04:40:23;5.43;;;4.93;;
11064;SDS011;5585;52.530;7.320;2023-06-24T04:42:51;7.03;;;5.13;;
11064;SDS011;5585;52.530;7.320;2023-06-24T04:45:17;5.72;;;5.07;;
11064;SDS011;5585;52.530;7.320;2023-06-24T04:47:44;5.88;;;5.28;;
11064;SDS011;5585;52.530;7.320;2023-06-24T04:50:10;6.30;;;5.70;;
11064;SDS011;5585;52.530;7.320;2023-06-24T04:52:37;5.13;;;4.63;;
11064;SDS011;5585;52.530;7.320;2023-06-24T04:55:04;4.68;;;4.28;;
11064;SDS011;5585;52.530;7.320;2023-06-24T04:57:31;5.50;;;5.00;;
11064;SDS011;5585;52.530;7.320;2023-06-24T05:00:00;5.95;;;5.35;;
11064;SDS011;5585;52.530;7.320;2023-06-24T05:02:27;5.43;;;4.95;;
11064;SDS011;5585;52.530;7.320;2023-06-24T05:04:53;6.53;;;5.53;;
11064;SDS011;5585;52.530;7.320;2023-06-24T05:07:20;5.38;;;4.95;;
11064;SDS011;5585;52.530;7.320;2023-06-24T05:09:46;5.97;;;5.47;;
11064;SDS011;5585;52.530;7.320;2023-06-24T05:12:13;6.13;;;5.53;;
11064;SDS011;5585;52.530;7.320;2023-06-24T05:14:40;7.13;;;6.32;;
11064;SDS011;5585;52.530;7.320;2023-06-24T05:17:08;6.20;;;5.60;;
11064;SDS011;5585;52.530;7.320;2023-06-24T05:19:34;5.63;;;5.03;;
11064;SDS011;5585;52.530;7.320;2023-06-24T05:22:01;6.60;;;6.00;;
11064;SDS011;5585;52.530;7.320;2023-06-24T05:24:27;6.88;;;6.28;;
11064;SDS011;5585;52.530;7.320;2023-06-24T05:26:54;6.97;;;6.28;;
11064;SDS011;5585;52.530;7.320;2023-06-24T05:29:20;6.53;;;5.93;;
11064;SDS011;5585;52.530;7.320;2023-06-24T05:31:47;6.90;;;6.20;;
11064;SDS011;5585;52.530;7.320;2023-06-24T05:34:14;7.13;;;6.43;;
11064;SDS011;5585;52.530;7.320;2023-06-24T05:36:41;7.15;;;6.45;;
11064;SDS011;5585;52.530;7.320;2023-06-24T05:39:07;7.05;;;6.35;;
11064;SDS011;5585;52.530;7.320;2023-06-24T05:41:35;7.03;;;6.30;;
11064;SDS011;5585;52.530;7.320;2023-06-24T05:44:02;7.07;;;6.47;;
11064;SDS011;5585;52.530;7.320;2023-06-24T05:46:28;6.43;;;5.82;;
11064;SDS011;5585;52.530;7.320;2023-06-24T05:48:55;8.15;;;6.00;;
11064;SDS011;5585;52.530;7.320;2023-06-24T05:51:23;6.07;;;5.55;;
11064;SDS011;5585;52.530;7.320;2023-06-24T05:53:49;5.97;;;5.47;;
11064;SDS011;5585;52.530;7.320;2023-06-24T05:56:16;8.48;;;7.03;;
11064;SDS011;5585;52.530;7.320;2023-06-24T05:58:42;6.05;;;5.55;;
11064;SDS011;5585;52.530;7.320;2023-06-24T06:01:09;6.68;;;6.03;;
11064;SDS011;5585;52.530;7.320;2023-06-24T06:03:35;5.85;;;5.32;;
11064;SDS011;5585;52.530;7.320;2023-06-24T06:06:02;5.70;;;5.20;;
11064;SDS011;5585;52.530;7.320;2023-06-24T06:08:30;5.72;;;5.22;;
11064;SDS011;5585;52.530;7.320;2023-06-24T06:10:56;5.03;;;4.53;;
11064;SDS011;5585;52.530;7.320;2023-06-24T06:13:23;6.25;;;5.10;;
11064;SDS011;5585;52.530;7.320;2023-06-24T06:15:50;5.78;;;5.18;;
11064;SDS011;5585;52.530;7.320;2023-06-24T06:18:16;5.65;;;5.10;;
11064;SDS011;5585;52.530;7.320;2023-06-24T06:20:43;5.60;;;5.10;;
11064;SDS011;5585;52.530;7.320;2023-06-24T06:23:09;4.95;;;4.55;;
11064;SDS011;5585;52.530;7.320;2023-06-24T06:25:37;5.50;;;5.00;;
11064;SDS011;5585;52.530;7.320;2023-06-24T06:28:04;7.07;;;5.10;;
11064;SDS011;5585;52.530;7.320;2023-06-24T06:30:30;5.93;;;5.32;;
11064;SDS011;5585;52.530;7.320;2023-06-24T06:32:57;5.28;;;4.78;;
11064;SDS011;5585;52.530;7.320;2023-06-24T06:35:23;4.90;;;4.47;;
11064;SDS011;5585;52.530;7.320;2023-06-24T06:37:50;5.07;;;4.43;;
11064;SDS011;5585;52.530;7.320;2023-06-24T06:40:19;6.15;;;5.05;;
11064;SDS011;5585;52.530;7.320;2023-06-24T06:42:47;5.50;;;5.00;;
11064;SDS011;5585;52.530;7.320;2023-06-24T06:45:13;5.07;;;4.57;;
11064;SDS011;5585;52.530;7.320;2023-06-24T06:47:40;4.97;;;4.55;;
11064;SDS011;5585;52.530;7.320;2023-06-24T06:50:07;4.85;;;4.45;;
11064;SDS011;5585;52.530;7.320;2023-06-24T06:52:34;4.78;;;4.28;;
11064;SDS011;5585;52.530;7.320;2023-06-24T06:55:00;5.93;;;5.07;;
11064;SDS011;5585;52.530;7.320;2023-06-24T06:57:27;4.88;;;4.30;;
11064;SDS011;5585;52.530;7.320;2023-06-24T06:59:55;6.53;;;5.18;;
11064;SDS011;5585;52.530;7.320;2023-06-24T07:02:21;4.68;;;4.28;;
11064;SDS011;5585;52.530;7.320;2023-06-24T07:04:48;4.70;;;4.30;;
11064;SDS011;5585;52.530;7.320;2023-06-24T07:07:15;5.65;;;5.15;;
11064;SDS011;5585;52.530;7.320;2023-06-24T07:09:42;5.80;;;5.07;;
11064;SDS011;5585;52.530;7.320;2023-06-24T07:12:09;6.20;;;5.60;;
11064;SDS011;5585;52.530;7.320;2023-06-24T07:14:35;5.53;;;4.95;;
11064;SDS011;5585;52.530;7.320;2023-06-24T07:17:03;5.82;;;5.32;;
11064;SDS011;5585;52.530;7.320;2023-06-24T07:19:30;5.05;;;4.63;;
11064;SDS011;5585;52.530;7.320;2023-06-24T07:21:56;5.07;;;4.63;;
11064;SDS011;5585;52.530;7.320;2023-06-24T07:24:23;5.95;;;5.38;;
11064;SDS011;5585;52.530;7.320;2023-06-24T07:26:49;5.18;;;4.70;;
11064;SDS011;5585;52.530;7.320;2023-06-24T07:29:16;4.80;;;4.20;;
11064;SDS011;5585;52.530;7.320;2023-06-24T07:31:42;4.60;;;4.30;;
11064;SDS011;5585;52.530;7.320;2023-06-24T07:34:10;6.07;;;4.95;;
11064;SDS011;5585;52.530;7.320;2023-06-24T07:36:37;4.65;;;4.25;;
11064;SDS011;5585;52.530;7.320;2023-06-24T07:39:03;4.88;;;4.45;;
11064;SDS011;5585;52.530;7.320;2023-06-24T07:41:30;5.78;;;5.28;;
11064;SDS011;5585;52.530;7.320;2023-06-24T07:43:57;7.53;;;6.32;;
11064;SDS011;5585;52.530;7.320;2023-06-24T07:46:23;4.95;;;4.47;;
11064;SDS011;5585;52.530;7.320;2023-06-24T07:48:52;5.68;;;5.10;;
11064;SDS011;5585;52.530;7.320;2023-06-24T07:51:20;5.18;;;4.32;;
11064;SDS011;5585;52.530;7.320;2023-06-24T07:53:46;4.70;;;4.28;;
11064;SDS011;5585;52.530;7.320;2023-06-24T07:56:13;4.60;;;4.20;;
11064;SDS011;5585;52.530;7.320;2023-06-24T07:58:39;4.60;;;4.20;;
11064;SDS011;5585;52.530;7.320;2023-06-24T08:01:06;4.50;;;3.92;;
11064;SDS011;5585;52.530;7.320;2023-06-24T08:03:33;6.57;;;5.22;;
11064;SDS011;5585;52.530;7.320;2023-06-24T08:05:59;4.70;;;4.30;;
11064;SDS011;5585;52.530;7.320;2023-06-24T08:08:27;4.85;;;4.22;;
11064;SDS011;5585;52.530;7.320;2023-06-24T08:10:53;4.50;;;4.10;;
11064;SDS011;5585;52.530;7.320;2023-06-24T08:13:20;6.28;;;5.60;;
11064;SDS011;5585;52.530;7.320;2023-06-24T08:15:46;4.97;;;4.50;;
11064;SDS011;5585;52.530;7.320;2023-06-24T08:18:13;6.15;;;4.90;;
11064;SDS011;5585;52.530;7.320;2023-06-24T08:20:39;5.85;;;5.32;;
11064;SDS011;5585;52.530;7.320;2023-06-24T08:23:06;5.78;;;5.20;;
11064;SDS011;5585;52.530;7.320;2023-06-24T08:25:36;5.13;;;4.63;;
11064;SDS011;5585;52.530;7.320;2023-06-24T08:28:02;5.63;;;5.13;;
11064;SDS011;5585;52.530;7.320;2023-06-24T08:30:29;5.43;;;5.03;;
11064;SDS011;5585;52.530;7.320;2023-06-24T08:32:55;6.10;;;5.40;;
11064;SDS011;5585;52.530;7.320;2023-06-24T08:35:22;7.40;;;6.35;;
11064;SDS011;5585;52.530;7.320;2023-06-24T08:37:48;6.55;;;5.95;;
11064;SDS011;5585;52.530;7.320;2023-06-24T08:40:15;5.45;;;4.95;;
11064;SDS011;5585;52.530;7.320;2023-06-24T08:42:44;7.63;;;5.45;;
11064;SDS011;5585;52.530;7.320;2023-06-24T08:45:10;5.70;;;4.53;;
11064;SDS011;5585;52.530;7.320;2023-06-24T08:47:37;6.07;;;5.50;;
11064;SDS011;5585;52.530;7.320;2023-06-24T08:50:04;10.05;;;7.10;;
11064;SDS011;5585;52.530;7.320;2023-06-24T08:52:31;6.15;;;5.55;;
11064;SDS011;5585;52.530;7.320;2023-06-24T08:54:59;5.40;;;4.90;;
11064;SDS011;5585;52.530;7.320;2023-06-24T08:57:25;5.20;;;4.70;;
11064;SDS011;5585;52.530;7.320;2023-06-24T08:59:53;5.85;;;5.00;;
11064;SDS011;5585;52.530;7.320;2023-06-24T09:02:20;6.28;;;5.60;;
11064;SDS011;5585;52.530;7.320;2023-06-24T09:04:46;5.95;;;5.35;;
11064;SDS011;5585;52.530;7.320;2023-06-24T09:07:13;8.38;;;6.63;;
11064;SDS011;5585;52.530;7.320;2023-06-24T09:09:43;5.38;;;4.88;;
11064;SDS011;5585;52.530;7.320;2023-06-24T09:12:11;4.57;;;4.13;;
11064;SDS011;5585;52.530;7.320;2023-06-24T09:14:37;4.82;;;4.43;;
11064;SDS011;5585;52.530;7.320;2023-06-24T09:17:07;6.22;;;5.38;;
11064;SDS011;5585;52.530;7.320;2023-06-24T09:19:34;4.78;;;4.38;;
11064;SDS011;5585;52.530;7.320;2023-06-24T09:22:02;6.03;;;5.43;;
11064;SDS011;5585;52.530;7.320;2023-06-24T09:24:29;6.57;;;5.03;;
11064;SDS011;5585;52.530;7.320;2023-06-24T09:26:56;5.32;;;4.93;;
11064;SDS011;5585;52.530;7.320;2023-06-24T09:29:25;5.80;;;5.20;;
11064;SDS011;5585;52.530;7.320;2023-06-24T09:31:51;5.13;;;4.72;;
11064;SDS011;5585;52.530;7.320;2023-06-24T09:34:21;5.93;;;4.72;;
11064;SDS011;5585;52.530;7.320;2023-06-24T09:36:51;5.45;;;4.95;;
11064;SDS011;5585;52.530;7.320;2023-06-24T09:39:17;5.22;;;4.80;;
11064;SDS011;5585;52.530;7.320;2023-06-24T09:41:45;8.95;;;5.68;;
11064;SDS011;5585;52.530;7.320;2023-06-24T09:44:15;5.60;;;5.10;;
11064;SDS011;5585;52.530;7.320;2023-06-24T09:46:42;6.97;;;5.13;;
11064;SDS011;5585;52.530;7.320;2023-06-24T09:49:09;6.65;;;6.05;;
11064;SDS011;5585;52.530;7.320;2023-06-24T09:51:37;6.70;;;5.97;;
11064;SDS011;5585;52.530;7.320;2023-06-24T09:54:04;6.90;;;6.20;;
11064;SDS011;5585;52.530;7.320;2023-06-24T09:56:32;5.45;;;4.95;;
11064;SDS011;5585;52.530;7.320;2023-06-24T09:58:59;6.32;;;5.63;;
11064;SDS011;5585;52.530;7.320;2023-06-24T10:01:25;6.25;;;5.68;;
11064;SDS011;5585;52.530;7.320;2023-06-24T10:03:52;5.55;;;4.53;;
11064;SDS011;5585;52.530;7.320;2023-06-24T10:06:19;5.45;;;4.53;;
11064;SDS011;5585;52.530;7.320;2023-06-24T10:08:47;5.50;;;4.95;;
11064;SDS011;5585;52.530;7.320;2023-06-24T10:11:14;7.88;;;7.07;;
11064;SDS011;5585;52.530;7.320;2023-06-24T10:13:40;7.93;;;7.13;;
11064;SDS011;5585;52.530;7.320;2023-06-24T10:16:06;6.72;;;5.57;;
11064;SDS011;5585;52.530;7.320;2023-06-24T10:18:34;7.00;;;5.80;;
11064;SDS011;5585;52.530;7.320;2023-06-24T10:21:01;5.90;;;5.40;;
11064;SDS011;5585;52.530;7.320;2023-06-24T10:23:31;6.95;;;5.78;;
11064;SDS011;5585;52.530;7.320;2023-06-24T10:25:59;6.85;;;6.15;;
11064;SDS011;5585;52.530;7.320;2023-06-24T10:28:26;5.80;;;5.18;;
11064;SDS011;5585;52.530;7.320;2023-06-24T10:30:56;6.07;;;5.35;;
11064;SDS011;5585;52.530;7.320;2023-06-24T10:33:23;6.43;;;5.75;;
11064;SDS011;5585;52.530;7.320;2023-06-24T10:35:50;6.30;;;5.70;;
11064;SDS011;5585;52.530;7.320;2023-06-24T10:38:18;6.93;;;5.55;;
11064;SDS011;5585;52.530;7.320;2023-06-24T10:40:44;5.25;;;4.75;;
11064;SDS011;5585;52.530;7.320;2023-06-24T10:43:26;5.82;;;5.30;;
11064;SDS011;5585;52.530;7.320;2023-06-24T10:45:53;5.70;;;5.18;;
11064;SDS011;5585;52.530;7.320;2023-06-24T10:48:19;6.57;;;5.38;;
11064;SDS011;5585;52.530;7.320;2023-06-24T10:50:46;6.75;;;6.07;;
11064;SDS011;5585;52.530;7.320;2023-06-24T10:53:13;5.22;;;4.80;;
11064;SDS011;5585;52.530;7.320;2023-06-24T10:55:39;5.03;;;4.53;;
11064;SDS011;5585;52.530;7.320;2023-06-24T10:58:09;5.13;;;4.63;;
11064;SDS011;5585;52.530;7.320;2023-06-24T11:00:38;6.78;;;5.57;;
11064;SDS011;5585;52.530;7.320;2023-06-24T11:03:08;5.38;;;4.60;;
11064;SDS011;5585;52.530;7.320;2023-06-24T11:05:37;5.63;;;5.13;;
11064;SDS011;5585;52.530;7.320;2023-06-24T11:08:04;5.95;;;5.38;;
11064;SDS011;5585;52.530;7.320;2023-06-24T11:10:31;5.50;;;5.03;;
11064;SDS011;5585;52.530;7.320;2023-06-24T11:12:57;8.13;;;6.28;;
11064;SDS011;5585;52.530;7.320;2023-06-24T11:15:31;6.28;;;5.75;;
11064;SDS011;5585;52.530;7.320;2023-06-24T11:18:01;5.00;;;4.60;;
11064;SDS011;5585;52.530;7.320;2023-06-24T11:20:28;6.13;;;5.53;;
11064;SDS011;5585;52.530;7.320;2023-06-24T11:22:55;6.32;;;5.72;;
11064;SDS011;5585;52.530;7.320;2023-06-24T11:25:21;6.90;;;6.18;;
11064;SDS011;5585;52.530;7.320;2023-06-24T11:27:49;6.30;;;4.85;;
11064;SDS011;5585;52.530;7.320;2023-06-24T11:30:16;6.70;;;6.05;;
11064;SDS011;5585;52.530;7.320;2023-06-24T11:32:44;6.05;;;5.40;;
11064;SDS011;5585;52.530;7.320;2023-06-24T11:35:12;7.30;;;5.47;;
11064;SDS011;5585;52.530;7.320;2023-06-24T11:37:40;6.82;;;5.70;;
11064;SDS011;5585;52.530;7.320;2023-06-24T11:40:08;5.45;;;4.20;;
11064;SDS011;5585;52.530;7.320;2023-06-24T11:42:35;8.77;;;5.55;;
11064;SDS011;5585;52.530;7.320;2023-06-24T11:45:02;6.82;;;5.25;;
11064;SDS011;5585;52.530;7.320;2023-06-24T11:47:31;6.20;;;5.15;;
11064;SDS011;5585;52.530;7.320;2023-06-24T11:49:59;4.82;;;4.32;;
11064;SDS011;5585;52.530;7.320;2023-06-24T11:52:33;5.13;;;4.32;;
11064;SDS011;5585;52.530;7.320;2023-06-24T11:55:04;4.03;;;3.70;;
11064;SDS011;5585;52.530;7.320;2023-06-24T11:57:49;4.85;;;4.35;;
11064;SDS011;5585;52.530;7.320;2023-06-24T12:00:16;5.72;;;4.00;;
11064;SDS011;5585;52.530;7.320;2023-06-24T12:02:45;4.15;;;3.75;;
11064;SDS011;5585;52.530;7.320;2023-06-24T12:05:11;4.10;;;3.70;;
11064;SDS011;5585;52.530;7.320;2023-06-24T12:07:39;5.28;;;4.00;;
11064;SDS011;5585;52.530;7.320;2023-06-24T12:10:07;4.05;;;3.50;;
11064;SDS011;5585;52.530;7.320;2023-06-24T12:12:34;3.53;;;3.22;;
11064;SDS011;5585;52.530;7.320;2023-06-24T12:15:00;7.10;;;4.35;;
11064;SDS011;5585;52.530;7.320;2023-06-24T12:17:27;5.10;;;4.60;;
11064;SDS011;5585;52.530;7.320;2023-06-24T12:19:53;4.72;;;4.32;;
11064;SDS011;5585;52.530;7.320;2023-06-24T12:22:20;4.15;;;3.78;;
11064;SDS011;5585;52.530;7.320;2023-06-24T12:24:48;5.00;;;4.45;;
11064;SDS011;5585;52.530;7.320;2023-06-24T12:27:17;4.63;;;4.22;;
11064;SDS011;5585;52.530;7.320;2023-06-24T12:29:43;6.65;;;4.07;;
11064;SDS011;5585;52.530;7.320;2023-06-24T12:32:10;4.03;;;3.72;;
11064;SDS011;5585;52.530;7.320;2023-06-24T12:34:36;4.47;;;3.88;;
11064;SDS011;5585;52.530;7.320;2023-06-24T12:37:03;4.22;;;3.92;;
11064;SDS011;5585;52.530;7.320;2023-06-24T12:39:29;5.22;;;4.45;;
11064;SDS011;5585;52.530;7.320;2023-06-24T12:41:57;4.65;;;4.13;;
11064;SDS011;5585;52.530;7.320;2023-06-24T12:44:24;4.15;;;3.75;;
11064;SDS011;5585;52.530;7.320;2023-06-24T12:46:52;6.38;;;5.78;;
11064;SDS011;5585;52.530;7.320;2023-06-24T12:49:18;5.95;;;5.35;;
11064;SDS011;5585;52.530;7.320;2023-06-24T12:51:45;4.88;;;4.47;;
11064;SDS011;5585;52.530;7.320;2023-06-24T12:54:12;5.13;;;4.22;;
11064;SDS011;5585;52.530;7.320;2023-06-24T12:56:38;5.07;;;4.68;;
11064;SDS011;5585;52.530;7.320;2023-06-24T12:59:06;5.32;;;4.82;;
11064;SDS011;5585;52.530;7.320;2023-06-24T13:01:32;4.80;;;4.40;;
11064;SDS011;5585;52.530;7.320;2023-06-24T13:03:59;5.07;;;4.60;;
11064;SDS011;5585;52.530;7.320;2023-06-24T13:06:25;5.55;;;4.57;;
11064;SDS011;5585;52.530;7.320;2023-06-24T13:08:52;4.38;;;3.97;;
11064;SDS011;5585;52.530;7.320;2023-06-24T13:11:19;4.75;;;4.18;;
11064;SDS011;5585;52.530;7.320;2023-06-24T13:13:45;4.88;;;3.75;;
11064;SDS011;5585;52.530;7.320;2023-06-24T13:16:13;4.13;;;3.72;;
11064;SDS011;5585;52.530;7.320;2023-06-24T13:18:40;3.72;;;3.42;;
11064;SDS011;5585;52.530;7.320;2023-06-24T13:21:06;4.85;;;4.40;;
11064;SDS011;5585;52.530;7.320;2023-06-24T13:23:33;5.07;;;4.50;;
11064;SDS011;5585;52.530;7.320;2023-06-24T13:26:02;4.28;;;3.88;;
11064;SDS011;5585;52.530;7.320;2023-06-24T13:28:29;4.43;;;4.03;;
11064;SDS011;5585;52.530;7.320;2023-06-24T13:30:56;3.88;;;3.47;;
11064;SDS011;5585;52.530;7.320;2023-06-24T13:33:24;4.53;;;4.13;;
11064;SDS011;5585;52.530;7.320;2023-06-24T13:35:51;5.38;;;4.53;;
11064;SDS011;5585;52.530;7.320;2023-06-24T13:38:17;4.55;;;4.00;;
11064;SDS011;5585;52.530;7.320;2023-06-24T13:40:44;4.03;;;3.42;;
11064;SDS011;5585;52.530;7.320;2023-06-24T13:43:10;4.07;;;3.78;;
11064;SDS011;5585;52.530;7.320;2023-06-24T13:45:37;4.78;;;3.83;;
11064;SDS011;5585;52.530;7.320;2023-06-24T13:48:03;4.03;;;3.63;;
11064;SDS011;5585;52.530;7.320;2023-06-24T13:50:31;3.63;;;3.28;;
11064;SDS011;5585;52.530;7.320;2023-06-24T13:52:58;3.60;;;3.17;;
11064;SDS011;5585;52.530;7.320;2023-06-24T13:55:25;4.10;;;3.70;;
11064;SDS011;5585;52.530;7.320;2023-06-24T13:57:51;4.35;;;3.95;;
11064;SDS011;5585;52.530;7.320;2023-06-24T14:00:18;4.13;;;3.70;;
11064;SDS011;5585;52.530;7.320;2023-06-24T14:02:45;4.60;;;3.63;;
11064;SDS011;5585;52.530;7.320;2023-06-24T14:05:12;4.82;;;4.32;;
11064;SDS011;5585;52.530;7.320;2023-06-24T14:07:39;3.40;;;3.10;;
11064;SDS011;5585;52.530;7.320;2023-06-24T14:10:06;4.15;;;3.83;;
11064;SDS011;5585;52.530;7.320;2023-06-24T14:12:33;3.83;;;3.53;;
11064;SDS011;5585;52.530;7.320;2023-06-24T14:14:59;3.70;;;3.40;;
11064;SDS011;5585;52.530;7.320;2023-06-24T14:17:26;4.07;;;3.67;;
11064;SDS011;5585;52.530;7.320;2023-06-24T14:19:52;3.85;;;3.53;;
11064;SDS011;5585;52.530;7.320;2023-06-24T14:22:19;4.90;;;4.40;;
11064;SDS011;5585;52.530;7.320;2023-06-24T14:24:48;3.83;;;3.53;;
11064;SDS011;5585;52.530;7.320;2023-06-24T14:27:15;3.92;;;3.63;;
11064;SDS011;5585;52.530;7.320;2023-06-24T14:29:41;4.03;;;3.22;;
11064;SDS011;5585;52.530;7.320;2023-06-24T14:32:08;3.67;;;2.85;;
11064;SDS011;5585;52.530;7.320;2023-06-24T14:34:35;3.45;;;3.15;;
11064;SDS011;5585;52.530;7.320;2023-06-24T14:37:01;5.88;;;4.72;;
11064;SDS011;5585;52.530;7.320;2023-06-24T14:39:28;4.63;;;3.80;;
11064;SDS011;5585;52.530;7.320;2023-06-24T14:41:56;4.40;;;4.00;;
11064;SDS011;5585;52.530;7.320;2023-06-24T14:44:22;4.18;;;3.83;;
11064;SDS011;5585;52.530;7.320;2023-06-24T14:46:49;5.70;;;4.65;;
11064;SDS011;5585;52.530;7.320;2023-06-24T14:49:15;4.85;;;4.20;;
11064;SDS011;5585;52.530;7.320;2023-06-24T14:51:43;5.80;;;4.18;;
11064;SDS011;5585;52.530;7.320;2023-06-24T14:54:09;5.07;;;3.60;;
11064;SDS011;5585;52.530;7.320;2023-06-24T14:56:36;5.28;;;3.60;;
11064;SDS011;5585;52.530;7.320;2023-06-24T14:59:06;3.45;;;3.05;;
11064;SDS011;5585;52.530;7.320;2023-06-24T15:01:33;4.30;;;3.50;;
11064;SDS011;5585;52.530;7.320;2023-06-24T15:03:59;3.53;;;3.22;;